createdAt,value
2023-02-26T00:02:22.146Z,1.95
2023-02-26T00:05:08.598Z,1.60
2023-02-26T00:07:53.834Z,1.83
2023-02-26T00:10:39.258Z,2.15
2023-02-26T00:13:25.422Z,1.92
2023-02-26T00:16:25.967Z,1.95
2023-02-26T00:19:12.656Z,3.35
2023-02-26T00:21:58.679Z,1.10
2023-02-26T00:24:44.065Z,1.38
2023-02-26T00:27:29.541Z,0.95
2023-02-26T00:30:15.373Z,0.65
2023-02-26T00:33:01.884Z,0.95
2023-02-26T00:35:55.860Z,0.77
2023-02-26T00:38:45.085Z,0.85
2023-02-26T00:41:31.283Z,1.00
2023-02-26T00:44:17.379Z,0.90
2023-02-26T00:47:40.765Z,1.13
2023-02-26T00:50:27.371Z,0.95
2023-02-26T00:53:20.367Z,0.90
2023-02-26T00:56:05.793Z,0.90
2023-02-26T00:58:51.045Z,0.90
2023-02-26T01:01:36.620Z,0.63
2023-02-26T01:04:23.733Z,0.90
2023-02-26T01:07:10.782Z,0.65
2023-02-26T01:09:56.791Z,0.85
2023-02-26T01:12:43.229Z,0.85
2023-02-26T01:15:29.002Z,0.80
2023-02-26T01:18:19.567Z,0.90
2023-02-26T01:21:10.268Z,0.60
2023-02-26T01:23:55.729Z,0.57
2023-02-26T01:26:41.509Z,0.73
2023-02-26T01:29:27.541Z,0.88
2023-02-26T01:32:21.111Z,0.60
2023-02-26T01:35:41.076Z,1.05
2023-02-26T01:38:54.097Z,0.93
2023-02-26T01:41:46.958Z,1.10
2023-02-26T01:44:43.134Z,0.68
2023-02-26T01:47:39.625Z,0.80
2023-02-26T01:50:30.076Z,0.73
2023-02-26T01:56:14.138Z,0.93
2023-02-26T01:59:00.910Z,1.08
2023-02-26T02:01:46.685Z,0.52
2023-02-26T02:04:33.619Z,0.50
2023-02-26T02:07:20.250Z,1.10
2023-02-26T02:10:06.218Z,0.85
2023-02-26T02:12:56.508Z,0.80
2023-02-26T02:15:57.064Z,0.70
2023-02-26T02:19:20.034Z,0.93
2023-02-26T02:22:30.396Z,0.65
2023-02-26T02:25:31.199Z,0.70
2023-02-26T02:28:55.407Z,0.60
2023-02-26T02:31:50.366Z,0.95
2023-02-26T02:34:53.440Z,0.75
2023-02-26T02:37:48.729Z,0.63
2023-02-26T02:40:41.057Z,0.68
2023-02-26T02:46:22.066Z,0.52
2023-02-26T02:49:15.655Z,0.50
2023-02-26T02:52:08.500Z,0.80
2023-02-26T02:54:57.823Z,0.50
2023-02-26T02:58:06.113Z,0.30
2023-02-26T03:00:56.554Z,0.50
2023-02-26T03:03:51.086Z,0.60
2023-02-26T03:06:36.834Z,0.40
2023-02-26T03:09:22.306Z,0.40
2023-02-26T03:12:07.608Z,0.93
2023-02-26T03:14:53.455Z,0.68
2023-02-26T03:17:59.822Z,0.40
2023-02-26T03:21:03.171Z,0.40
2023-02-26T03:24:11.261Z,0.40
2023-02-26T03:27:09.821Z,0.65
2023-02-26T03:30:17.462Z,0.65
2023-02-26T03:33:25.319Z,0.30
2023-02-26T03:36:19.973Z,0.32
2023-02-26T03:39:24.106Z,0.63
2023-02-26T03:42:24.492Z,0.57
2023-02-26T03:45:20.588Z,0.28
2023-02-26T03:48:10.110Z,0.38
2023-02-26T03:51:01.506Z,0.35
2023-02-26T03:54:11.042Z,0.38
2023-02-26T03:56:59.953Z,0.40
2023-02-26T04:00:15.593Z,0.65
2023-02-26T04:03:09.964Z,0.50
2023-02-26T04:05:56.465Z,0.20
2023-02-26T04:08:43.624Z,0.73
2023-02-26T04:11:30.567Z,0.63
2023-02-26T04:14:15.911Z,0.60
2023-02-26T04:17:02.214Z,0.65
2023-02-26T04:19:47.972Z,0.80
2023-02-26T04:22:34.156Z,0.85
2023-02-26T04:25:20.327Z,0.80
2023-02-26T04:28:05.966Z,0.52
2023-02-26T04:30:52.435Z,0.80
2023-02-26T04:33:38.106Z,0.73
2023-02-26T04:36:24.054Z,0.77
2023-02-26T04:39:10.818Z,0.50
2023-02-26T04:41:56.246Z,0.63
2023-02-26T04:44:41.443Z,1.05
2023-02-26T04:47:26.737Z,1.25
2023-02-26T04:50:12.212Z,0.65
2023-02-26T04:52:57.636Z,0.95
2023-02-26T04:55:44.125Z,0.68
2023-02-26T04:58:29.878Z,0.40
2023-02-26T05:01:21.793Z,0.77
2023-02-26T05:04:07.366Z,0.50
2023-02-26T05:06:53.502Z,0.80
2023-02-26T05:09:39.774Z,1.17
2023-02-26T05:12:25.316Z,0.60
2023-02-26T05:15:11.697Z,0.60
2023-02-26T05:17:57.261Z,0.95
2023-02-26T05:20:42.730Z,0.65
2023-02-26T05:23:28.907Z,0.60
2023-02-26T05:26:14.301Z,1.00
2023-02-26T05:29:00.129Z,1.00
2023-02-26T05:31:45.498Z,0.98
2023-02-26T05:34:31.348Z,1.10
2023-02-26T05:37:16.944Z,0.95
2023-02-26T05:40:02.982Z,0.43
2023-02-26T05:42:48.356Z,0.85
2023-02-26T05:45:33.583Z,0.73
2023-02-26T05:48:19.528Z,0.77
2023-02-26T05:51:04.914Z,0.60
2023-02-26T05:53:50.259Z,0.52
2023-02-26T05:56:36.369Z,0.73
2023-02-26T05:59:22.297Z,0.50
2023-02-26T06:02:07.803Z,0.52
2023-02-26T06:04:53.530Z,0.65
2023-02-26T06:07:39.080Z,0.50
2023-02-26T06:10:24.768Z,0.70
2023-02-26T06:13:10.308Z,0.90
2023-02-26T06:15:55.808Z,0.70
2023-02-26T06:18:41.251Z,0.93
2023-02-26T06:21:26.756Z,0.68
2023-02-26T06:24:12.260Z,0.80
2023-02-26T06:26:57.543Z,0.60
2023-02-26T06:29:43.243Z,0.60
2023-02-26T06:32:30.677Z,0.65
2023-02-26T06:35:16.533Z,0.60
2023-02-26T06:38:02.264Z,0.50
2023-02-26T06:40:48.578Z,0.60
2023-02-26T06:43:34.146Z,0.63
2023-02-26T06:46:19.728Z,0.60
2023-02-26T06:49:05.161Z,1.10
2023-02-26T06:51:51.454Z,0.75
2023-02-26T06:54:36.990Z,0.52
2023-02-26T06:57:22.231Z,0.68
2023-02-26T07:00:09.412Z,0.43
2023-02-26T07:02:54.838Z,0.75
2023-02-26T07:05:40.803Z,0.68
2023-02-26T07:08:26.433Z,0.73
2023-02-26T07:11:11.873Z,0.55
2023-02-26T07:13:57.512Z,0.60
2023-02-26T07:16:42.795Z,0.90
2023-02-26T07:19:28.274Z,0.40
2023-02-26T07:22:15.093Z,0.68
2023-02-26T07:25:00.686Z,0.60
2023-02-26T07:27:46.287Z,0.65
2023-02-26T07:30:31.977Z,1.20
2023-02-26T07:33:17.745Z,0.55
2023-02-26T07:36:03.472Z,0.45
2023-02-26T07:38:48.806Z,0.57
2023-02-26T07:41:34.185Z,0.70
2023-02-26T07:44:19.452Z,0.70
2023-02-26T07:47:04.953Z,1.20
2023-02-26T07:49:50.574Z,1.17
2023-02-26T07:52:35.829Z,0.98
2023-02-26T07:55:21.920Z,0.98
2023-02-26T07:58:07.380Z,1.20
2023-02-26T08:00:52.901Z,0.47
2023-02-26T08:03:38.482Z,0.95
2023-02-26T08:06:24.523Z,1.20
2023-02-26T08:09:10.280Z,0.68
2023-02-26T08:11:55.648Z,0.77
2023-02-26T08:14:43.764Z,0.63
2023-02-26T08:17:29.344Z,0.63
2023-02-26T08:20:15.393Z,0.90
2023-02-26T08:23:01.295Z,0.52
2023-02-26T08:25:47.014Z,1.17
2023-02-26T08:28:33.489Z,0.45
2023-02-26T08:31:19.078Z,0.77
2023-02-26T08:34:04.623Z,0.80
2023-02-26T08:36:50.409Z,1.10
2023-02-26T08:39:38.486Z,0.50
2023-02-26T08:42:23.719Z,0.60
2023-02-26T08:45:09.831Z,1.10
2023-02-26T08:47:57.175Z,0.95
2023-02-26T08:50:42.814Z,0.65
2023-02-26T08:53:28.082Z,1.10
2023-02-26T08:56:14.268Z,0.65
2023-02-26T08:58:59.736Z,0.68
2023-02-26T09:01:45.312Z,0.75
2023-02-26T09:04:31.320Z,0.90
2023-02-26T09:07:16.760Z,0.90
2023-02-26T09:10:02.318Z,0.65
2023-02-26T09:12:47.781Z,1.08
2023-02-26T09:15:33.540Z,0.60
2023-02-26T09:18:19.097Z,0.63
2023-02-26T09:21:04.931Z,0.65
2023-02-26T09:23:50.401Z,0.60
2023-02-26T09:26:36.006Z,0.82
2023-02-26T09:29:21.396Z,0.70
2023-02-26T09:32:08.734Z,0.80
2023-02-26T09:34:54.062Z,0.70
2023-02-26T09:37:40.268Z,1.20
2023-02-26T09:40:48.815Z,0.50
2023-02-26T09:43:43.308Z,0.40
2023-02-26T09:46:41.151Z,0.60
2023-02-26T09:49:41.598Z,0.85
2023-02-26T09:52:45.693Z,0.77
2023-02-26T09:55:43.731Z,0.75
2023-02-26T09:58:40.293Z,0.98
2023-02-26T10:01:35.324Z,0.85
2023-02-26T10:04:36.985Z,1.83
2023-02-26T10:07:34.815Z,1.00
2023-02-26T10:10:25.910Z,0.88
2023-02-26T10:13:23.982Z,0.80
2023-02-26T10:16:14.927Z,0.80
2023-02-26T10:19:08.373Z,1.13
2023-02-26T10:22:17.812Z,0.82
2023-02-26T10:25:14.470Z,0.77
2023-02-26T10:28:28.566Z,1.08
2023-02-26T10:31:32.977Z,0.95
2023-02-26T10:34:51.802Z,0.77
2023-02-26T10:37:57.440Z,0.80
2023-02-26T10:40:50.894Z,1.05
2023-02-26T10:43:49.101Z,0.80
2023-02-26T10:47:09.334Z,1.20
2023-02-26T10:49:59.316Z,1.02
2023-02-26T10:52:46.049Z,1.05
2023-02-26T10:55:54.291Z,1.13
2023-02-26T10:58:40.334Z,0.65
2023-02-26T11:01:29.811Z,0.68
2023-02-26T11:04:18.357Z,1.48
2023-02-26T11:07:06.303Z,1.33
2023-02-26T11:09:52.429Z,1.10
2023-02-26T11:12:37.863Z,1.20
2023-02-26T11:15:26.730Z,1.27
2023-02-26T11:18:17.171Z,0.80
2023-02-26T11:21:06.194Z,1.33
2023-02-26T11:24:29.018Z,0.95
2023-02-26T11:27:19.726Z,0.88
2023-02-26T11:30:18.727Z,1.45
2023-02-26T11:33:15.799Z,1.27
2023-02-26T11:36:06.201Z,1.15
2023-02-26T11:39:08.392Z,1.23
2023-02-26T11:41:57.405Z,0.85
2023-02-26T11:44:47.799Z,0.75
2023-02-26T11:47:34.440Z,1.05
2023-02-26T11:50:26.172Z,0.80
2023-02-26T11:53:25.752Z,1.42
2023-02-26T11:56:20.359Z,1.00
2023-02-26T11:59:18.387Z,1.20
2023-02-26T12:02:12.677Z,1.10
2023-02-26T12:05:02.835Z,1.13
2023-02-26T12:07:48.950Z,0.73
2023-02-26T12:10:47.635Z,1.10
2023-02-26T12:14:28.775Z,0.70
2023-02-26T12:17:26.401Z,0.80
2023-02-26T12:20:33.234Z,1.33
2023-02-26T12:23:26.138Z,0.88
2023-02-26T12:27:02.590Z,1.20
2023-02-26T12:30:21.069Z,1.13
2023-02-26T12:33:44.269Z,0.93
2023-02-26T12:37:05.269Z,1.00
2023-02-26T12:39:53.965Z,1.13
2023-02-26T12:42:59.568Z,1.55
2023-02-26T12:45:54.140Z,0.88
2023-02-26T12:48:57.783Z,1.30
2023-02-26T12:52:20.139Z,1.30
2023-02-26T12:55:08.337Z,0.82
2023-02-26T12:58:11.956Z,1.00
2023-02-26T13:01:25.327Z,1.38
2023-02-26T13:04:33.702Z,1.13
2023-02-26T13:07:22.448Z,0.98
2023-02-26T13:10:38.706Z,1.92
2023-02-26T13:13:43.477Z,2.63
2023-02-26T13:16:40.418Z,1.33
2023-02-26T13:19:26.102Z,1.27
2023-02-26T13:22:28.929Z,0.85
2023-02-26T13:25:38.697Z,1.80
2023-02-26T13:28:42.614Z,1.30
2023-02-26T13:31:34.389Z,0.90
2023-02-26T13:37:45.816Z,0.88
2023-02-26T13:40:53.242Z,1.40
2023-02-26T13:43:48.726Z,1.23
2023-02-26T13:46:52.585Z,1.30
2023-02-26T13:50:11.664Z,1.10
2023-02-26T13:53:05.039Z,1.10
2023-02-26T13:55:53.695Z,0.95
2023-02-26T13:58:44.195Z,1.52
2023-02-26T14:01:35.753Z,0.95
2023-02-26T14:04:24.356Z,1.23
2023-02-26T14:07:17.149Z,0.88
2023-02-26T14:10:14.808Z,1.83
2023-02-26T14:13:19.708Z,1.00
2023-02-26T14:16:21.374Z,1.88
2023-02-26T14:19:27.032Z,1.52
2023-02-26T14:22:31.023Z,1.25
2023-02-26T14:25:38.820Z,0.80
2023-02-26T14:28:27.936Z,1.10
2023-02-26T14:31:22.551Z,1.55
2023-02-26T14:34:21.088Z,1.50
2023-02-26T14:37:14.723Z,1.20
2023-02-26T14:40:16.007Z,1.27
2023-02-26T14:43:05.169Z,1.35
2023-02-26T14:45:51.296Z,1.38
2023-02-26T14:48:39.262Z,1.35
2023-02-26T14:51:30.732Z,0.82
2023-02-26T14:55:08.195Z,1.57
2023-02-26T14:58:00.574Z,0.88
2023-02-26T15:00:55.133Z,1.92
2023-02-26T15:04:05.013Z,1.38
2023-02-26T15:07:09.781Z,1.83
2023-02-26T15:10:14.211Z,0.98
2023-02-26T15:13:18.177Z,1.60
2023-02-26T15:16:19.914Z,1.65
2023-02-26T15:19:40.539Z,1.17
2023-02-26T15:22:32.346Z,0.95
2023-02-26T15:25:28.161Z,0.90
2023-02-26T15:28:41.194Z,1.00
2023-02-26T15:31:51.143Z,0.85
2023-02-26T15:34:37.985Z,1.10
2023-02-26T15:37:26.382Z,1.25
2023-02-26T15:40:15.290Z,1.35
2023-02-26T15:43:02.239Z,1.40
2023-02-26T15:45:49.591Z,1.17
2023-02-26T15:48:42.219Z,1.73
2023-02-26T15:51:28.745Z,2.00
2023-02-26T15:54:20.954Z,1.58
2023-02-26T15:57:06.683Z,1.38
2023-02-26T15:59:55.105Z,1.38
2023-02-26T16:02:41.517Z,1.40
2023-02-26T16:05:28.912Z,1.63
2023-02-26T16:08:18.464Z,1.38
2023-02-26T16:11:03.943Z,1.70
2023-02-26T16:13:53.625Z,2.22
2023-02-26T16:16:49.530Z,1.10
2023-02-26T16:19:46.223Z,1.33
2023-02-26T16:22:42.002Z,1.25
2023-02-26T16:25:35.318Z,1.45
2023-02-26T16:28:24.179Z,0.80
2023-02-26T16:31:17.672Z,1.10
2023-02-26T16:34:26.100Z,1.80
2023-02-26T16:37:26.269Z,1.58
2023-02-26T16:40:11.781Z,1.92
2023-02-26T16:43:03.427Z,1.67
2023-02-26T16:45:54.295Z,1.45
2023-02-26T16:48:53.441Z,0.98
2023-02-26T16:51:41.144Z,1.60
2023-02-26T16:54:28.859Z,2.42
2023-02-26T16:57:22.295Z,2.15
2023-02-26T17:00:17.751Z,1.63
2023-02-26T17:03:14.047Z,1.55
2023-02-26T17:06:03.567Z,1.30
2023-02-26T17:08:56.783Z,2.20
2023-02-26T17:11:45.804Z,2.47
2023-02-26T17:14:38.811Z,2.50
2023-02-26T17:17:25.640Z,3.88
2023-02-26T17:20:12.118Z,3.50
2023-02-26T17:22:59.585Z,3.45
2023-02-26T17:25:47.480Z,3.10
2023-02-26T17:28:36.733Z,3.03
2023-02-26T17:31:22.507Z,4.40
2023-02-26T17:34:11.407Z,2.70
2023-02-26T17:36:57.474Z,2.65
2023-02-26T17:39:44.239Z,2.15
2023-02-26T17:42:29.887Z,1.98
2023-02-26T17:45:15.991Z,2.17
2023-02-26T17:48:01.673Z,2.60
2023-02-26T17:50:50.857Z,2.97
2023-02-26T17:53:41.002Z,2.08
2023-02-26T17:56:30.224Z,2.25
2023-02-26T17:59:15.897Z,2.22
2023-02-26T18:02:01.433Z,2.53
2023-02-26T18:04:46.742Z,4.70
2023-02-26T18:07:32.224Z,3.50
2023-02-26T18:10:23.216Z,3.60
2023-02-26T18:13:11.306Z,4.60
2023-02-26T18:15:58.353Z,4.18
2023-02-26T18:18:44.251Z,2.60
2023-02-26T18:21:31.284Z,4.35
2023-02-26T18:24:16.813Z,3.72
2023-02-26T18:27:02.375Z,3.05
2023-02-26T18:29:47.833Z,3.10
2023-02-26T18:32:33.750Z,4.22
2023-02-26T18:35:19.359Z,5.45
2023-02-26T18:38:04.782Z,4.47
2023-02-26T18:40:50.529Z,3.03
2023-02-26T18:43:36.092Z,3.95
2023-02-26T18:46:21.659Z,3.40
2023-02-26T18:49:13.045Z,3.70
2023-02-26T18:51:59.198Z,3.67
2023-02-26T18:54:45.296Z,4.22
2023-02-26T18:57:30.926Z,4.43
2023-02-26T19:00:16.760Z,4.18
2023-02-26T19:03:02.132Z,5.18
2023-02-26T19:05:56.375Z,4.75
2023-02-26T19:08:41.817Z,4.65
2023-02-26T19:11:27.391Z,4.97
2023-02-26T19:14:13.390Z,5.13
2023-02-26T19:16:58.927Z,4.70
2023-02-26T19:19:44.090Z,5.35
2023-02-26T19:22:29.569Z,4.50
2023-02-26T19:25:15.178Z,3.53
2023-02-26T19:28:00.690Z,4.78
2023-02-26T19:30:46.429Z,4.57
2023-02-26T19:33:31.790Z,3.95
2023-02-26T19:36:21.905Z,3.35
2023-02-26T19:39:07.309Z,3.45
2023-02-26T19:41:55.433Z,2.95
2023-02-26T19:44:41.175Z,3.20
2023-02-26T19:47:26.682Z,4.18
2023-02-26T19:50:14.326Z,2.88
2023-02-26T19:53:00.656Z,3.08
2023-02-26T19:55:46.256Z,2.42
2023-02-26T19:58:33.185Z,3.55
2023-02-26T20:01:18.608Z,3.75
2023-02-26T20:04:04.710Z,4.00
2023-02-26T20:06:50.687Z,4.40
2023-02-26T20:09:36.225Z,5.15
2023-02-26T20:12:21.941Z,6.75
2023-02-26T20:15:08.744Z,5.30
2023-02-26T20:17:54.027Z,5.05
2023-02-26T20:20:39.513Z,5.63
2023-02-26T20:23:24.770Z,5.05
2023-02-26T20:26:13.685Z,4.97
2023-02-26T20:28:59.336Z,4.30
2023-02-26T20:31:49.581Z,5.45
2023-02-26T20:34:35.217Z,5.28
2023-02-26T20:37:20.818Z,5.30
2023-02-26T20:40:07.592Z,6.78
2023-02-26T20:42:53.115Z,7.40
2023-02-26T20:45:39.341Z,8.50
2023-02-26T20:48:25.400Z,4.82
2023-02-26T20:51:12.226Z,5.55
2023-02-26T20:53:57.693Z,5.85
2023-02-26T20:56:42.968Z,6.15
2023-02-26T20:59:28.321Z,4.70
2023-02-26T21:02:15.662Z,4.70
2023-02-26T21:05:01.044Z,3.67
2023-02-26T21:07:46.671Z,4.00
2023-02-26T21:10:32.899Z,4.50
2023-02-26T21:13:18.746Z,2.92
2023-02-26T21:16:04.375Z,3.17
2023-02-26T21:18:49.969Z,3.17
2023-02-26T21:21:35.884Z,3.75
2023-02-26T21:24:21.222Z,4.07
2023-02-26T21:27:06.816Z,3.10
2023-02-26T21:29:52.440Z,2.95
2023-02-26T21:32:39.048Z,3.40
2023-02-26T21:35:24.881Z,3.58
2023-02-26T21:38:10.843Z,4.05
2023-02-26T21:40:56.047Z,4.15
2023-02-26T21:43:41.469Z,2.88
2023-02-26T21:46:26.749Z,2.13
2023-02-26T21:49:12.252Z,2.58
2023-02-26T21:51:59.095Z,2.60
2023-02-26T21:54:44.673Z,2.95
2023-02-26T21:57:30.715Z,2.17
2023-02-26T22:00:17.960Z,2.30
2023-02-26T22:03:03.801Z,2.50
2023-02-26T22:05:53.064Z,2.08
2023-02-26T22:08:38.674Z,4.82
2023-02-26T22:11:23.946Z,5.00
2023-02-26T22:14:09.326Z,4.00
2023-02-26T22:16:54.806Z,2.70
2023-02-26T22:19:40.884Z,3.20
2023-02-26T22:22:27.094Z,2.53
2023-02-26T22:25:12.909Z,3.05
2023-02-26T22:27:58.702Z,2.53
2023-02-26T22:30:44.399Z,2.05
2023-02-26T22:33:29.609Z,2.08
2023-02-26T22:36:14.904Z,1.75
2023-02-26T22:39:00.398Z,1.77
2023-02-26T22:41:47.389Z,1.67
2023-02-26T22:44:33.064Z,1.80
2023-02-26T22:47:18.467Z,1.50
2023-02-26T22:50:04.802Z,1.90
2023-02-26T22:52:50.114Z,1.60
2023-02-26T22:55:35.502Z,1.85
2023-02-26T22:58:20.780Z,1.52
2023-02-26T23:01:08.082Z,1.40
2023-02-26T23:03:53.541Z,1.17
2023-02-26T23:06:38.828Z,1.52
2023-02-26T23:09:24.295Z,1.45
2023-02-26T23:12:10.805Z,1.20
2023-02-26T23:14:56.356Z,1.10
2023-02-26T23:17:42.270Z,1.90
2023-02-26T23:20:27.839Z,0.95
2023-02-26T23:23:14.362Z,0.85
2023-02-26T23:26:00.128Z,1.08
2023-02-26T23:28:45.523Z,1.20
2023-02-26T23:31:31.374Z,1.00
2023-02-26T23:34:17.487Z,0.90
2023-02-26T23:37:03.084Z,0.88
2023-02-26T23:39:49.364Z,1.02
2023-02-26T23:42:34.610Z,1.08
2023-02-26T23:45:19.967Z,1.42
2023-02-26T23:48:05.584Z,1.23
2023-02-26T23:50:51.687Z,1.80
2023-02-26T23:53:37.052Z,1.60
2023-02-26T23:56:22.409Z,1.48
2023-02-26T23:59:07.974Z,1.35
